ICE737 EKVG-ENZV
Flight info
| Callsign | ICE737 |
|---|---|
| Flight time | 1h 23m |
| Altitude | 39000 |
| Route | ODEVA DCT RIXUN/N0455F390 DCT PEPIN DCT KUNEM |
| Aircraft | B38M/M-SDE1FGHILORVWXY/HB1 |
Departure
| Time | 2026-04-22 19:15 |
|---|---|
| Airport | Vágar Airport (EKVG) |
Arrival
| Time | 2026-04-22 20:38 |
|---|---|
| Airport | Stavanger Airport, Sola (ENZV) |
| Time | Latitude | Longitude | Altitude | Speed | Heading |
|---|---|---|---|---|---|
| 2026-04-22 18:50 | 62.06636 | -7.27783 | 291 ft | 0 kts | 180° |
| 2026-04-22 19:11 | 62.06624 | -7.27785 | 294 ft | 3 kts | 192° |
| 2026-04-22 19:11 | 62.06620 | -7.27798 | 296 ft | 2 kts | 253° |
| 2026-04-22 19:11 | 62.06605 | -7.27906 | 291 ft | 14 kts | 253° |
| 2026-04-22 19:12 | 62.06543 | -7.28100 | 293 ft | 6 kts | 214° |
| 2026-04-22 19:12 | 62.06479 | -7.28143 | 279 ft | 13 kts | 168° |
| 2026-04-22 19:12 | 62.06409 | -7.27944 | 282 ft | 21 kts | 118° |
| 2026-04-22 19:12 | 62.06327 | -7.27624 | 282 ft | 29 kts | 119° |
| 2026-04-22 19:13 | 62.06216 | -7.27182 | 273 ft | 38 kts | 118° |
| 2026-04-22 19:13 | 62.06098 | -7.26698 | 268 ft | 36 kts | 118° |
| 2026-04-22 19:13 | 62.05977 | -7.26226 | 257 ft | 22 kts | 122° |
| 2026-04-22 19:13 | 62.05939 | -7.26087 | 253 ft | 1 kts | 52° |
| 2026-04-22 19:14 | 62.05945 | -7.26090 | 253 ft | 3 kts | 347° |
| 2026-04-22 19:14 | 62.05968 | -7.26139 | 254 ft | 0 kts | 300° |
| 2026-04-22 19:15 | 62.05972 | -7.26156 | 255 ft | 8 kts | 298° |
| 2026-04-22 19:15 | 62.06226 | -7.27195 | 273 ft | 115 kts | 297° |
| 2026-04-22 19:15 | 62.06705 | -7.29175 | 377 ft | 177 kts | 298° |
| 2026-04-22 19:15 | 62.07337 | -7.31731 | 1064 ft | 207 kts | 294° |
| 2026-04-22 19:16 | 62.07749 | -7.34555 | 2518 ft | 200 kts | 283° |
| 2026-04-22 19:16 | 62.08055 | -7.37611 | 3302 ft | 222 kts | 282° |
| 2026-04-22 19:16 | 62.08380 | -7.40965 | 4194 ft | 234 kts | 280° |
| 2026-04-22 19:16 | 62.08699 | -7.44372 | 5333 ft | 238 kts | 278° |
| 2026-04-22 19:17 | 62.08839 | -7.47950 | 6286 ft | 245 kts | 267° |
| 2026-04-22 19:17 | 62.08620 | -7.51556 | 7349 ft | 247 kts | 254° |
| 2026-04-22 19:17 | 62.08006 | -7.54944 | 8292 ft | 251 kts | 240° |
| 2026-04-22 19:17 | 62.06985 | -7.57986 | 9283 ft | 253 kts | 225° |
| 2026-04-22 19:18 | 62.05635 | -7.60412 | 10256 ft | 256 kts | 211° |
| 2026-04-22 19:18 | 62.04030 | -7.62072 | 11160 ft | 258 kts | 197° |
| 2026-04-22 19:18 | 62.02263 | -7.62854 | 12029 ft | 261 kts | 183° |
| 2026-04-22 19:18 | 62.00449 | -7.62668 | 12900 ft | 263 kts | 168° |
| 2026-04-22 19:19 | 61.98698 | -7.61498 | 13774 ft | 265 kts | 154° |
| 2026-04-22 19:19 | 61.97131 | -7.59405 | 14604 ft | 267 kts | 140° |
| 2026-04-22 19:19 | 61.95859 | -7.56498 | 15383 ft | 270 kts | 126° |
| 2026-04-22 19:19 | 61.94980 | -7.52973 | 16162 ft | 273 kts | 111° |
| 2026-04-22 19:20 | 61.94555 | -7.49024 | 16858 ft | 281 kts | 98° |
| 2026-04-22 19:20 | 61.94394 | -7.44741 | 17192 ft | 300 kts | 97° |
| 2026-04-22 19:20 | 61.94209 | -7.40186 | 17436 ft | 319 kts | 98° |
| 2026-04-22 19:20 | 61.94001 | -7.35341 | 17652 ft | 339 kts | 98° |
| 2026-04-22 19:21 | 61.93773 | -7.30224 | 17824 ft | 358 kts | 98° |
| 2026-04-22 19:21 | 61.93529 | -7.24883 | 17956 ft | 377 kts | 98° |
| 2026-04-22 19:21 | 61.93262 | -7.19135 | 18071 ft | 395 kts | 98° |
| 2026-04-22 19:21 | 61.92989 | -7.13308 | 18369 ft | 406 kts | 98° |
| 2026-04-22 19:22 | 61.92703 | -7.07281 | 19060 ft | 406 kts | 98° |
| 2026-04-22 19:22 | 61.92419 | -7.01366 | 19577 ft | 409 kts | 98° |
| 2026-04-22 19:22 | 61.92129 | -6.95363 | 20174 ft | 410 kts | 98° |
| 2026-04-22 19:22 | 61.91834 | -6.89322 | 20742 ft | 412 kts | 99° |
| 2026-04-22 19:23 | 61.91538 | -6.83289 | 21305 ft | 413 kts | 99° |
| 2026-04-22 19:23 | 61.91235 | -6.77194 | 21864 ft | 415 kts | 99° |
| 2026-04-22 19:23 | 61.90931 | -6.71118 | 22405 ft | 416 kts | 99° |
| 2026-04-22 19:23 | 61.90621 | -6.64989 | 22945 ft | 418 kts | 100° |
| 2026-04-22 19:24 | 61.89937 | -6.59064 | 23443 ft | 414 kts | 115° |
| 2026-04-22 19:24 | 61.88722 | -6.53521 | 23944 ft | 416 kts | 117° |
| 2026-04-22 19:24 | 61.87480 | -6.47972 | 24378 ft | 417 kts | 117° |
| 2026-04-22 19:24 | 61.86214 | -6.42422 | 24803 ft | 419 kts | 118° |
| 2026-04-22 19:25 | 61.84928 | -6.36864 | 25194 ft | 421 kts | 118° |
| 2026-04-22 19:25 | 61.83630 | -6.31296 | 25586 ft | 423 kts | 118° |
| 2026-04-22 19:25 | 61.82321 | -6.25702 | 25965 ft | 425 kts | 118° |
| 2026-04-22 19:25 | 61.81006 | -6.20102 | 26347 ft | 427 kts | 118° |
| 2026-04-22 19:26 | 61.79684 | -6.14485 | 26803 ft | 427 kts | 119° |
| 2026-04-22 19:26 | 61.78361 | -6.08880 | 27350 ft | 424 kts | 119° |
| 2026-04-22 19:26 | 61.77042 | -6.03303 | 27908 ft | 422 kts | 119° |
| 2026-04-22 19:26 | 61.75727 | -5.97760 | 28453 ft | 420 kts | 119° |
| 2026-04-22 19:27 | 61.74425 | -5.92281 | 29009 ft | 418 kts | 119° |
| 2026-04-22 19:27 | 61.73135 | -5.86875 | 29537 ft | 416 kts | 120° |
| 2026-04-22 19:27 | 61.71839 | -5.81449 | 30093 ft | 414 kts | 120° |
| 2026-04-22 19:27 | 61.70539 | -5.76027 | 30623 ft | 412 kts | 120° |
| 2026-04-22 19:28 | 61.69255 | -5.70675 | 31071 ft | 410 kts | 120° |
| 2026-04-22 19:28 | 61.67965 | -5.65317 | 31459 ft | 409 kts | 120° |
| 2026-04-22 19:28 | 61.66677 | -5.59980 | 31865 ft | 408 kts | 120° |
| 2026-04-22 19:28 | 61.65390 | -5.54663 | 32268 ft | 407 kts | 120° |
| 2026-04-22 19:29 | 61.64100 | -5.49342 | 32678 ft | 406 kts | 120° |
| 2026-04-22 19:29 | 61.62814 | -5.44054 | 33068 ft | 405 kts | 120° |
| 2026-04-22 19:29 | 61.61531 | -5.38791 | 33466 ft | 404 kts | 120° |
| 2026-04-22 19:29 | 61.60261 | -5.33591 | 33862 ft | 403 kts | 120° |
| 2026-04-22 19:30 | 61.59828 | -5.31823 | 33998 ft | 403 kts | 120° |
| 2026-04-22 19:30 | 61.57701 | -5.23153 | 34629 ft | 401 kts | 120° |
| 2026-04-22 19:30 | 61.56422 | -5.17952 | 34937 ft | 401 kts | 120° |
| 2026-04-22 19:30 | 61.55134 | -5.12733 | 35191 ft | 402 kts | 120° |
| 2026-04-22 19:31 | 61.53850 | -5.07536 | 35421 ft | 403 kts | 120° |
| 2026-04-22 19:31 | 61.52553 | -5.02307 | 35668 ft | 404 kts | 120° |
| 2026-04-22 19:31 | 61.51254 | -4.97075 | 35906 ft | 405 kts | 120° |
| 2026-04-22 19:31 | 61.49945 | -4.91820 | 36144 ft | 406 kts | 120° |
| 2026-04-22 19:32 | 61.49080 | -4.88352 | 36298 ft | 407 kts | 120° |
| 2026-04-22 19:32 | 61.47339 | -4.81389 | 36598 ft | 408 kts | 120° |
| 2026-04-22 19:32 | 61.46020 | -4.76129 | 36809 ft | 409 kts | 120° |
| 2026-04-22 19:32 | 61.45123 | -4.72559 | 36963 ft | 409 kts | 120° |
| 2026-04-22 19:33 | 61.43796 | -4.67289 | 37165 ft | 410 kts | 120° |
| 2026-04-22 19:33 | 61.42463 | -4.62007 | 37378 ft | 411 kts | 120° |
| 2026-04-22 19:33 | 61.41127 | -4.56724 | 37575 ft | 412 kts | 120° |
| 2026-04-22 19:33 | 61.39800 | -4.51495 | 37787 ft | 413 kts | 120° |
| 2026-04-22 19:34 | 61.38452 | -4.46189 | 37969 ft | 414 kts | 120° |
| 2026-04-22 19:34 | 61.37102 | -4.40896 | 38141 ft | 414 kts | 120° |
| 2026-04-22 19:34 | 61.35750 | -4.35598 | 38361 ft | 415 kts | 120° |
| 2026-04-22 19:34 | 61.34389 | -4.30283 | 38526 ft | 416 kts | 120° |
| 2026-04-22 19:35 | 61.33024 | -4.24963 | 38704 ft | 416 kts | 120° |
| 2026-04-22 19:35 | 61.31651 | -4.19629 | 38877 ft | 417 kts | 120° |
| 2026-04-22 19:35 | 61.30281 | -4.14313 | 39051 ft | 417 kts | 120° |
| 2026-04-22 19:35 | 61.28910 | -4.09013 | 39222 ft | 418 kts | 120° |
| 2026-04-22 19:36 | 61.27529 | -4.03677 | 39332 ft | 418 kts | 120° |
| 2026-04-22 19:36 | 61.26143 | -3.98344 | 39470 ft | 419 kts | 120° |
| 2026-04-22 19:36 | 61.24756 | -3.93016 | 39539 ft | 419 kts | 120° |
| 2026-04-22 19:37 | 61.21974 | -3.82366 | 39539 ft | 418 kts | 120° |
| 2026-04-22 19:37 | 61.19196 | -3.71787 | 39543 ft | 418 kts | 121° |
| 2026-04-22 19:38 | 61.16405 | -3.61203 | 39539 ft | 418 kts | 121° |
| 2026-04-22 19:38 | 61.13610 | -3.50659 | 39544 ft | 417 kts | 121° |
| 2026-04-22 19:39 | 61.10830 | -3.40215 | 39543 ft | 417 kts | 121° |
| 2026-04-22 19:39 | 61.08027 | -3.29732 | 39545 ft | 416 kts | 121° |
| 2026-04-22 19:40 | 61.05221 | -3.19276 | 39541 ft | 416 kts | 121° |
| 2026-04-22 19:40 | 61.02413 | -3.08858 | 39543 ft | 415 kts | 121° |
| 2026-04-22 19:41 | 60.99511 | -2.98581 | 39542 ft | 413 kts | 125° |
| 2026-04-22 19:41 | 60.96348 | -2.88689 | 39543 ft | 414 kts | 125° |
| 2026-04-22 19:42 | 60.93206 | -2.78743 | 39544 ft | 414 kts | 125° |
| 2026-04-22 19:42 | 60.90073 | -2.68838 | 39541 ft | 414 kts | 125° |
| 2026-04-22 19:43 | 60.85352 | -2.53991 | 39542 ft | 414 kts | 125° |
| 2026-04-22 19:43 | 60.82198 | -2.44126 | 39544 ft | 414 kts | 125° |
| 2026-04-22 19:44 | 60.79038 | -2.34283 | 39542 ft | 413 kts | 125° |
| 2026-04-22 19:44 | 60.75896 | -2.24537 | 39542 ft | 413 kts | 125° |
| 2026-04-22 19:45 | 60.72708 | -2.14689 | 39541 ft | 413 kts | 125° |
| 2026-04-22 19:45 | 60.69545 | -2.04963 | 39544 ft | 412 kts | 126° |
| 2026-04-22 19:46 | 60.66369 | -1.95236 | 39541 ft | 412 kts | 126° |
| 2026-04-22 19:46 | 60.63184 | -1.85520 | 39539 ft | 412 kts | 126° |
| 2026-04-22 19:47 | 60.59993 | -1.75829 | 39537 ft | 412 kts | 126° |
| 2026-04-22 19:47 | 60.56797 | -1.66159 | 39539 ft | 411 kts | 126° |
| 2026-04-22 19:48 | 60.53594 | -1.56514 | 39538 ft | 411 kts | 126° |
| 2026-04-22 19:48 | 60.50383 | -1.46883 | 39541 ft | 411 kts | 126° |
| 2026-04-22 19:49 | 60.47194 | -1.37354 | 39537 ft | 411 kts | 126° |
| 2026-04-22 19:49 | 60.43973 | -1.27772 | 39535 ft | 410 kts | 126° |
| 2026-04-22 19:50 | 60.40755 | -1.18237 | 39538 ft | 410 kts | 126° |
| 2026-04-22 19:50 | 60.37528 | -1.08716 | 39535 ft | 410 kts | 126° |
| 2026-04-22 19:51 | 60.34292 | -0.99205 | 39536 ft | 410 kts | 126° |
| 2026-04-22 19:51 | 60.31058 | -0.89741 | 39534 ft | 410 kts | 126° |
| 2026-04-22 19:52 | 60.27822 | -0.80306 | 39536 ft | 409 kts | 126° |
| 2026-04-22 19:52 | 60.24575 | -0.70880 | 39537 ft | 409 kts | 126° |
| 2026-04-22 19:53 | 60.21347 | -0.61545 | 39538 ft | 409 kts | 126° |
| 2026-04-22 19:53 | 60.18090 | -0.52163 | 39538 ft | 409 kts | 126° |
| 2026-04-22 19:54 | 60.14819 | -0.42781 | 39533 ft | 408 kts | 126° |
| 2026-04-22 19:54 | 60.11574 | -0.33511 | 39533 ft | 408 kts | 126° |
| 2026-04-22 19:55 | 60.08300 | -0.24192 | 39537 ft | 408 kts | 126° |
| 2026-04-22 19:55 | 60.05031 | -0.14914 | 39536 ft | 408 kts | 126° |
| 2026-04-22 19:56 | 60.01758 | -0.05664 | 39534 ft | 408 kts | 126° |
| 2026-04-22 19:56 | 59.98650 | 0.03814 | 39534 ft | 408 kts | 118° |
| 2026-04-22 19:57 | 59.96076 | 0.13937 | 39533 ft | 408 kts | 118° |
| 2026-04-22 19:57 | 59.93511 | 0.24046 | 39532 ft | 408 kts | 118° |
| 2026-04-22 19:58 | 59.90942 | 0.34138 | 39533 ft | 408 kts | 118° |
| 2026-04-22 19:58 | 59.88384 | 0.44153 | 39530 ft | 407 kts | 118° |
| 2026-04-22 20:00 | 59.79342 | 0.79184 | 39523 ft | 406 kts | 118° |
| 2026-04-22 20:01 | 59.76745 | 0.89143 | 39523 ft | 406 kts | 118° |
| 2026-04-22 20:01 | 59.74159 | 0.99016 | 39522 ft | 406 kts | 118° |
| 2026-04-22 20:02 | 59.71543 | 1.08962 | 39521 ft | 406 kts | 118° |
| 2026-04-22 20:02 | 59.68930 | 1.18854 | 39521 ft | 406 kts | 118° |
| 2026-04-22 20:03 | 59.66304 | 1.28748 | 39522 ft | 405 kts | 118° |
| 2026-04-22 20:03 | 59.63679 | 1.38597 | 39518 ft | 405 kts | 118° |
| 2026-04-22 20:04 | 59.61057 | 1.48391 | 39520 ft | 405 kts | 118° |
| 2026-04-22 20:04 | 59.58416 | 1.58215 | 39513 ft | 405 kts | 118° |
| 2026-04-22 20:05 | 59.55767 | 1.68024 | 39509 ft | 405 kts | 118° |
| 2026-04-22 20:05 | 59.53104 | 1.77840 | 39513 ft | 405 kts | 118° |
| 2026-04-22 20:06 | 59.50440 | 1.87623 | 39515 ft | 405 kts | 119° |
| 2026-04-22 20:06 | 59.47761 | 1.97415 | 39510 ft | 406 kts | 119° |
| 2026-04-22 20:07 | 59.45097 | 2.07110 | 39505 ft | 406 kts | 119° |
| 2026-04-22 20:07 | 59.42402 | 2.16876 | 39495 ft | 406 kts | 119° |
| 2026-04-22 20:08 | 59.39701 | 2.26622 | 39497 ft | 406 kts | 119° |
| 2026-04-22 20:08 | 59.36990 | 2.36363 | 39492 ft | 407 kts | 119° |
| 2026-04-22 20:09 | 59.34269 | 2.46097 | 39354 ft | 405 kts | 119° |
| 2026-04-22 20:09 | 59.32916 | 2.50919 | 38577 ft | 405 kts | 119° |
| 2026-04-22 20:09 | 59.31554 | 2.55764 | 37733 ft | 407 kts | 120° |
| 2026-04-22 20:09 | 59.30186 | 2.60622 | 37042 ft | 406 kts | 120° |
| 2026-04-22 20:10 | 59.28822 | 2.65459 | 36395 ft | 404 kts | 120° |
| 2026-04-22 20:10 | 59.27461 | 2.70269 | 35708 ft | 404 kts | 120° |
| 2026-04-22 20:10 | 59.26104 | 2.75059 | 34997 ft | 405 kts | 121° |
| 2026-04-22 20:10 | 59.24734 | 2.79884 | 34250 ft | 406 kts | 121° |
| 2026-04-22 20:11 | 59.23379 | 2.84647 | 33443 ft | 407 kts | 121° |
| 2026-04-22 20:11 | 59.21999 | 2.89489 | 32686 ft | 407 kts | 121° |
| 2026-04-22 20:11 | 59.20620 | 2.94315 | 31960 ft | 407 kts | 121° |
| 2026-04-22 20:11 | 59.19241 | 2.99132 | 31201 ft | 409 kts | 121° |
| 2026-04-22 20:12 | 59.17837 | 3.04025 | 30335 ft | 417 kts | 121° |
| 2026-04-22 20:12 | 59.16413 | 3.08977 | 29393 ft | 422 kts | 120° |
| 2026-04-22 20:12 | 59.15457 | 3.12297 | 28797 ft | 425 kts | 120° |
| 2026-04-22 20:12 | 59.13508 | 3.19044 | 27609 ft | 431 kts | 120° |
| 2026-04-22 20:13 | 59.12025 | 3.24171 | 26859 ft | 437 kts | 120° |
| 2026-04-22 20:13 | 59.10521 | 3.29351 | 26154 ft | 440 kts | 120° |
| 2026-04-22 20:13 | 59.09012 | 3.34542 | 25453 ft | 442 kts | 120° |
| 2026-04-22 20:13 | 59.07498 | 3.39737 | 24753 ft | 441 kts | 120° |
| 2026-04-22 20:14 | 59.05991 | 3.44896 | 24065 ft | 438 kts | 120° |
| 2026-04-22 20:14 | 59.04513 | 3.49943 | 23263 ft | 433 kts | 120° |
| 2026-04-22 20:14 | 59.03032 | 3.54992 | 22547 ft | 428 kts | 120° |
| 2026-04-22 20:14 | 59.01561 | 3.59995 | 21893 ft | 424 kts | 120° |
| 2026-04-22 20:15 | 59.00104 | 3.64939 | 21218 ft | 420 kts | 120° |
| 2026-04-22 20:15 | 58.98654 | 3.69849 | 20562 ft | 417 kts | 120° |
| 2026-04-22 20:15 | 58.97217 | 3.74705 | 19900 ft | 415 kts | 120° |
| 2026-04-22 20:15 | 58.95779 | 3.79555 | 19242 ft | 414 kts | 120° |
| 2026-04-22 20:16 | 58.94325 | 3.84448 | 18528 ft | 420 kts | 120° |
| 2026-04-22 20:16 | 58.92864 | 3.89353 | 17795 ft | 423 kts | 120° |
| 2026-04-22 20:16 | 58.91392 | 3.94290 | 17129 ft | 423 kts | 120° |
| 2026-04-22 20:16 | 58.89921 | 3.99214 | 16464 ft | 421 kts | 120° |
| 2026-04-22 20:17 | 58.88471 | 4.04060 | 15823 ft | 419 kts | 120° |
| 2026-04-22 20:17 | 58.87016 | 4.08912 | 15172 ft | 417 kts | 119° |
| 2026-04-22 20:17 | 58.85559 | 4.13761 | 14536 ft | 416 kts | 119° |
| 2026-04-22 20:17 | 58.84106 | 4.18587 | 13845 ft | 415 kts | 119° |
| 2026-04-22 20:18 | 58.82655 | 4.23398 | 13151 ft | 414 kts | 119° |
| 2026-04-22 20:18 | 58.81207 | 4.28189 | 12544 ft | 411 kts | 119° |
| 2026-04-22 20:18 | 58.79872 | 4.32999 | 12229 ft | 399 kts | 109° |
| 2026-04-22 20:18 | 58.79261 | 4.38092 | 12013 ft | 383 kts | 92° |
| 2026-04-22 20:19 | 58.79158 | 4.43109 | 11842 ft | 370 kts | 89° |
| 2026-04-22 20:19 | 58.79119 | 4.46368 | 11696 ft | 363 kts | 88° |
| 2026-04-22 20:19 | 58.79067 | 4.52742 | 11455 ft | 349 kts | 88° |
| 2026-04-22 20:19 | 58.79050 | 4.55815 | 11340 ft | 342 kts | 88° |
| 2026-04-22 20:20 | 58.79029 | 4.60337 | 11171 ft | 332 kts | 88° |
| 2026-04-22 20:20 | 58.79010 | 4.64727 | 11012 ft | 323 kts | 87° |
| 2026-04-22 20:20 | 58.78989 | 4.68986 | 10861 ft | 314 kts | 87° |
| 2026-04-22 20:20 | 58.78969 | 4.73146 | 10712 ft | 305 kts | 87° |
| 2026-04-22 20:21 | 58.78947 | 4.77178 | 10554 ft | 297 kts | 87° |
| 2026-04-22 20:21 | 58.78926 | 4.81115 | 10382 ft | 290 kts | 86° |
| 2026-04-22 20:21 | 58.78903 | 4.84982 | 10052 ft | 288 kts | 86° |
| 2026-04-22 20:21 | 58.78881 | 4.88846 | 9712 ft | 287 kts | 86° |
| 2026-04-22 20:22 | 58.78854 | 4.92712 | 9227 ft | 292 kts | 86° |
| 2026-04-22 20:22 | 58.78828 | 4.96658 | 8726 ft | 296 kts | 86° |
| 2026-04-22 20:22 | 58.78800 | 5.00631 | 8356 ft | 296 kts | 86° |
| 2026-04-22 20:22 | 58.78770 | 5.04571 | 8120 ft | 291 kts | 86° |
| 2026-04-22 20:23 | 58.78410 | 5.08376 | 7981 ft | 288 kts | 105° |
| 2026-04-22 20:23 | 58.77757 | 5.11969 | 7877 ft | 278 kts | 105° |
| 2026-04-22 20:23 | 58.77140 | 5.15421 | 7763 ft | 269 kts | 106° |
| 2026-04-22 20:23 | 58.76155 | 5.18450 | 7603 ft | 267 kts | 136° |
| 2026-04-22 20:24 | 58.74558 | 5.20147 | 7478 ft | 265 kts | 167° |
| 2026-04-22 20:24 | 58.72744 | 5.20284 | 7414 ft | 265 kts | 190° |
| 2026-04-22 20:24 | 58.70910 | 5.19814 | 7340 ft | 267 kts | 187° |
| 2026-04-22 20:24 | 58.69063 | 5.20141 | 7211 ft | 268 kts | 168° |
| 2026-04-22 20:25 | 58.67238 | 5.20880 | 7114 ft | 269 kts | 169° |
| 2026-04-22 20:25 | 58.65401 | 5.21602 | 7015 ft | 268 kts | 167° |
| 2026-04-22 20:25 | 58.63703 | 5.22980 | 6814 ft | 267 kts | 147° |
| 2026-04-22 20:25 | 58.62116 | 5.24854 | 6623 ft | 267 kts | 147° |
| 2026-04-22 20:26 | 58.60525 | 5.26703 | 6422 ft | 267 kts | 147° |
| 2026-04-22 20:26 | 58.59149 | 5.29018 | 6173 ft | 263 kts | 126° |
| 2026-04-22 20:26 | 58.58015 | 5.31732 | 6010 ft | 258 kts | 125° |
| 2026-04-22 20:26 | 58.56896 | 5.34386 | 5809 ft | 251 kts | 125° |
| 2026-04-22 20:27 | 58.56008 | 5.37154 | 5582 ft | 242 kts | 105° |
| 2026-04-22 20:27 | 58.55481 | 5.40208 | 5407 ft | 240 kts | 102° |
| 2026-04-22 20:27 | 58.55295 | 5.43286 | 5173 ft | 226 kts | 74° |
| 2026-04-22 20:27 | 58.55845 | 5.45881 | 4979 ft | 197 kts | 46° |
| 2026-04-22 20:28 | 58.56747 | 5.47400 | 4772 ft | 157 kts | 22° |
| 2026-04-22 20:28 | 58.57664 | 5.48037 | 4663 ft | 126 kts | 9° |
| 2026-04-22 20:28 | 58.58494 | 5.48442 | 4586 ft | 122 kts | 8° |
| 2026-04-22 20:28 | 58.59325 | 5.48793 | 4519 ft | 122 kts | 6° |
| 2026-04-22 20:29 | 58.60152 | 5.49102 | 4463 ft | 121 kts | 6° |
| 2026-04-22 20:29 | 58.60980 | 5.49430 | 4391 ft | 121 kts | 7° |
| 2026-04-22 20:29 | 58.61804 | 5.49757 | 4308 ft | 121 kts | 5° |
| 2026-04-22 20:29 | 58.62634 | 5.50012 | 4223 ft | 120 kts | 3° |
| 2026-04-22 20:30 | 58.63464 | 5.50204 | 4137 ft | 120 kts | 3° |
| 2026-04-22 20:30 | 58.64294 | 5.50375 | 4054 ft | 120 kts | 3° |
| 2026-04-22 20:30 | 58.65126 | 5.50545 | 3967 ft | 120 kts | 3° |
| 2026-04-22 20:30 | 58.65952 | 5.50713 | 3882 ft | 119 kts | 3° |
| 2026-04-22 20:31 | 58.66781 | 5.50882 | 3798 ft | 120 kts | 3° |
| 2026-04-22 20:31 | 58.67609 | 5.51050 | 3708 ft | 120 kts | 2° |
| 2026-04-22 20:31 | 58.68433 | 5.51218 | 3620 ft | 119 kts | 2° |
| 2026-04-22 20:31 | 58.69258 | 5.51385 | 3524 ft | 119 kts | 2° |
| 2026-04-22 20:32 | 58.70068 | 5.51606 | 3416 ft | 121 kts | 12° |
| 2026-04-22 20:32 | 58.70718 | 5.52697 | 3280 ft | 132 kts | 48° |
| 2026-04-22 20:32 | 58.71146 | 5.54288 | 3195 ft | 135 kts | 55° |
| 2026-04-22 20:32 | 58.71515 | 5.55960 | 3083 ft | 136 kts | 57° |
| 2026-04-22 20:33 | 58.71858 | 5.57663 | 2983 ft | 136 kts | 58° |
| 2026-04-22 20:33 | 58.72197 | 5.59364 | 2885 ft | 136 kts | 58° |
| 2026-04-22 20:33 | 58.72534 | 5.61056 | 2778 ft | 135 kts | 58° |
| 2026-04-22 20:33 | 58.72918 | 5.62662 | 2658 ft | 127 kts | 40° |
| 2026-04-22 20:34 | 58.73641 | 5.63408 | 2663 ft | 117 kts | 11° |
| 2026-04-22 20:34 | 58.74441 | 5.63747 | 2542 ft | 117 kts | 6° |
| 2026-04-22 20:34 | 58.75242 | 5.63937 | 2401 ft | 116 kts | 2° |
| 2026-04-22 20:34 | 58.76046 | 5.64031 | 2276 ft | 118 kts | 0° |
| 2026-04-22 20:35 | 58.76875 | 5.64069 | 2127 ft | 117 kts | 359° |
| 2026-04-22 20:35 | 58.77682 | 5.64068 | 1980 ft | 118 kts | 358° |
| 2026-04-22 20:35 | 58.78503 | 5.64054 | 1815 ft | 117 kts | 358° |
| 2026-04-22 20:35 | 58.79317 | 5.64033 | 1656 ft | 117 kts | 358° |
| 2026-04-22 20:36 | 58.80132 | 5.64010 | 1496 ft | 117 kts | 358° |
| 2026-04-22 20:36 | 58.80950 | 5.63983 | 1338 ft | 118 kts | 358° |
| 2026-04-22 20:36 | 58.81755 | 5.63965 | 1144 ft | 112 kts | 357° |
| 2026-04-22 20:36 | 58.82552 | 5.63951 | 910 ft | 120 kts | 357° |
| 2026-04-22 20:37 | 58.83406 | 5.63908 | 767 ft | 124 kts | 355° |
| 2026-04-22 20:37 | 58.84259 | 5.63876 | 686 ft | 121 kts | 356° |
| 2026-04-22 20:37 | 58.85094 | 5.63877 | 516 ft | 120 kts | 358° |
| 2026-04-22 20:37 | 58.85944 | 5.63859 | 354 ft | 122 kts | 356° |
| 2026-04-22 20:38 | 58.86792 | 5.63822 | 166 ft | 121 kts | 355° |
| 2026-04-22 20:38 | 58.87623 | 5.63789 | 40 ft | 117 kts | 357° |
| 2026-04-22 20:38 | 58.88221 | 5.63761 | 33 ft | 51 kts | 359° |
| 2026-04-22 20:38 | 58.88385 | 5.63754 | 33 ft | 1 kts | 358° |
| 2026-04-22 20:39 | 58.88376 | 5.63755 | 33 ft | 1 kts | 1° |
| 2026-04-22 20:39 | 58.88403 | 5.63754 | 33 ft | 5 kts | 359° |
| 2026-04-22 20:39 | 58.88494 | 5.63751 | 31 ft | 13 kts | 357° |
| 2026-04-22 20:39 | 58.88571 | 5.63747 | 29 ft | 12 kts | 359° |
| 2026-04-22 20:40 | 58.88620 | 5.63745 | 28 ft | 15 kts | 356° |
| 2026-04-22 20:40 | 58.88713 | 5.63559 | 26 ft | 21 kts | 272° |
| 2026-04-22 20:40 | 58.88638 | 5.63419 | 27 ft | 17 kts | 181° |
| 2026-04-22 20:40 | 58.88558 | 5.63420 | 28 ft | 0 kts | 179° |
| 2026-04-22 20:41 | 58.88550 | 5.63420 | 28 ft | 3 kts | 179° |
| 2026-04-22 20:41 | 58.88539 | 5.63421 | 28 ft | 0 kts | 179° |
| 2026-04-22 20:41 | 58.88527 | 5.63421 | 28 ft | 4 kts | 179° |
| 2026-04-22 20:41 | 58.88487 | 5.63422 | 29 ft | 7 kts | 179° |
| 2026-04-22 20:42 | 58.88424 | 5.63424 | 29 ft | 11 kts | 179° |
| 2026-04-22 20:42 | 58.88355 | 5.63428 | 30 ft | 4 kts | 178° |
| 2026-04-22 20:42 | 58.88338 | 5.63426 | 30 ft | 3 kts | 193° |
| 2026-04-22 20:42 | 58.88321 | 5.63379 | 30 ft | 6 kts | 262° |
| 2026-04-22 20:43 | 58.88321 | 5.63272 | 30 ft | 10 kts | 255° |
| 2026-04-22 20:43 | 58.88312 | 5.63232 | 30 ft | 2 kts | 232° |
| 2026-04-22 20:43 | 58.88294 | 5.63217 | 31 ft | 2 kts | 178° |
| 2026-04-22 20:43 | 58.88277 | 5.63227 | 31 ft | 4 kts | 172° |
| 2026-04-22 20:44 | 58.88268 | 5.63220 | 31 ft | 3 kts | 212° |
| 2026-04-22 20:44 | 58.88249 | 5.63165 | 31 ft | 6 kts | 256° |
| 2026-04-22 20:44 | 58.88245 | 5.63132 | 31 ft | 1 kts | 258° |
| 2026-04-22 20:44 | 58.88243 | 5.63120 | 31 ft | 1 kts | 255° |
| 2026-04-22 20:45 | 58.88240 | 5.63096 | 31 ft | 0 kts | 255° |